Airports

 

 

Airport Name Latest METAR Visual Conditions
Atlantic City Int. (ACY) KACY 180354Z 00000KT 10SM CLR M07/M15 A3070 RMK AO2 SLP397 T10671150 VFR
Baltimore International Airport (BWI) KBWI 180354Z 08003KT 10SM SCT220 M02/M14 A3069 RMK AO2 SLP394 T10221139 VFR
Washington National Airport (DCA) KDCA 180352Z 07006KT 10SM BKN180 M01/M11 A3070 RMK AO2 SLP396 T10061106 VFR
Dulles International Airport (IAD) KIAD 180352Z 00000KT 10SM SCT180 M04/M11 A3068 RMK AO2 SLP393 T10441106 VFR
Norfolk International Airport (ORF) KORF 180351Z 06007KT 10SM CLR 02/M08 A3068 RMK AO2 SLP388 T00221078 VFR
Raleigh International Airport (RDU) KRDU 180351Z 11005KT 10SM OVC150 04/M08 A3067 RMK AO2 SLP386 T00391083 VFR
Richmond International Airport (RIC) KRIC 180354Z 04003KT 10SM BKN220 M02/M09 A3069 RMK AO2 SLP398 T10171089 VFR
Roanoke Regional Airport (ROA) KROA 180354Z 14005KT 10SM OVC110 02/M09 A3063 RMK AO2 SLP379 T00171089 VFR